createdAt,value
2018-09-03T00:00:34.160Z,1015.27
2018-09-03T00:01:35.520Z,1015.20
2018-09-03T00:02:36.914Z,1015.21
2018-09-03T00:03:38.288Z,1015.20
2018-09-03T00:04:39.681Z,1015.17
2018-09-03T00:05:41.089Z,1015.13
2018-09-03T00:06:42.460Z,1015.16
2018-09-03T00:07:43.852Z,1015.17
2018-09-03T00:08:45.235Z,1015.19
2018-09-03T00:09:46.617Z,1015.14
2018-09-03T00:10:48.007Z,1015.14
2018-09-03T00:11:49.393Z,1015.13
2018-09-03T00:12:50.784Z,1015.10
2018-09-03T00:13:52.175Z,1015.14
2018-09-03T00:14:53.553Z,1015.13
2018-09-03T00:15:54.940Z,1015.12
2018-09-03T00:16:56.332Z,1015.14
2018-09-03T00:17:57.712Z,1015.12
2018-09-03T00:18:59.104Z,1015.10
2018-09-03T00:20:00.484Z,1015.11
2018-09-03T00:21:01.877Z,1015.08
2018-09-03T00:22:03.270Z,1015.07
2018-09-03T00:23:04.643Z,1015.05
2018-09-03T00:24:06.033Z,1015.05
2018-09-03T00:25:07.428Z,1015.05
2018-09-03T00:26:08.806Z,1015.03
2018-09-03T00:27:10.193Z,1015.03
2018-09-03T00:28:11.584Z,1015.05
2018-09-03T00:29:12.970Z,1015.04
2018-09-03T00:30:14.360Z,1015.05
2018-09-03T00:31:15.749Z,1015.06
2018-09-03T00:32:17.134Z,1015.01
2018-09-03T00:33:18.525Z,1015.00
2018-09-03T00:34:19.910Z,1015.01
2018-09-03T00:35:21.297Z,1014.97
2018-09-03T00:36:22.688Z,1015.00
2018-09-03T00:37:24.070Z,1014.99
2018-09-03T00:38:25.448Z,1015.02
2018-09-03T00:39:26.831Z,1014.93
2018-09-03T00:40:28.219Z,1014.99
2018-09-03T00:41:29.610Z,1014.97
2018-09-03T00:42:30.989Z,1014.97
2018-09-03T00:43:32.382Z,1014.98
2018-09-03T00:44:33.780Z,1015.01
2018-09-03T00:45:35.164Z,1015.00
2018-09-03T00:46:36.537Z,1015.00
2018-09-03T00:47:37.931Z,1015.00
2018-09-03T00:48:39.318Z,1014.96
2018-09-03T00:49:40.713Z,1014.97
2018-09-03T00:50:42.098Z,1014.92
2018-09-03T00:51:43.479Z,1014.91
2018-09-03T00:52:44.865Z,1014.90
2018-09-03T00:53:46.253Z,1014.90
2018-09-03T00:54:47.651Z,1014.90
2018-09-03T00:55:49.052Z,1014.89
2018-09-03T00:56:50.463Z,1014.91
2018-09-03T00:57:51.827Z,1014.89
2018-09-03T00:58:53.212Z,1014.89
2018-09-03T00:59:54.613Z,1014.86
2018-09-03T01:00:55.996Z,1014.86
2018-09-03T01:01:57.377Z,1014.84
2018-09-03T01:02:58.766Z,1014.84
2018-09-03T01:04:00.158Z,1014.82
2018-09-03T01:05:01.545Z,1014.78
2018-09-03T01:06:02.922Z,1014.80
2018-09-03T01:07:04.327Z,1014.80
2018-09-03T01:08:05.708Z,1014.80
2018-09-03T01:09:07.139Z,1014.76
2018-09-03T01:10:08.484Z,1014.75
2018-09-03T01:11:09.872Z,1014.75
2018-09-03T01:12:11.255Z,1014.75
2018-09-03T01:13:12.644Z,1014.73
2018-09-03T01:14:14.031Z,1014.75
2018-09-03T01:15:15.406Z,1014.73
2018-09-03T01:16:16.798Z,1014.69
2018-09-03T01:17:18.191Z,1014.70
2018-09-03T01:18:19.566Z,1014.67
2018-09-03T01:19:20.973Z,1014.68
2018-09-03T01:20:22.354Z,1014.67
2018-09-03T01:21:23.735Z,1014.67
2018-09-03T01:22:25.134Z,1014.62
2018-09-03T01:23:26.519Z,1014.66
2018-09-03T01:24:27.910Z,1014.64
2018-09-03T01:25:29.334Z,1014.66
2018-09-03T01:26:30.725Z,1014.66
2018-09-03T01:27:32.109Z,1014.65
2018-09-03T01:28:33.492Z,1014.58
2018-09-03T01:29:34.921Z,1014.60
2018-09-03T01:30:36.264Z,1014.63
2018-09-03T01:31:37.654Z,1014.65
2018-09-03T01:32:39.039Z,1014.63
2018-09-03T01:33:40.433Z,1014.66
2018-09-03T01:34:41.809Z,1014.65
2018-09-03T01:35:43.197Z,1014.67
2018-09-03T01:36:44.589Z,1014.65
2018-09-03T01:37:45.984Z,1014.67
2018-09-03T01:38:47.372Z,1014.65
2018-09-03T01:39:48.749Z,1014.65
2018-09-03T01:40:50.129Z,1014.62
2018-09-03T01:41:51.521Z,1014.62
2018-09-03T01:42:52.906Z,1014.67
2018-09-03T01:43:54.318Z,1014.65
2018-09-03T01:44:55.728Z,1014.67
2018-09-03T01:45:57.103Z,1014.68
2018-09-03T01:46:58.494Z,1014.68
2018-09-03T01:47:59.868Z,1014.72
2018-09-03T01:49:01.258Z,1014.68
2018-09-03T01:50:02.646Z,1014.70
2018-09-03T01:51:04.032Z,1014.69
2018-09-03T01:52:05.410Z,1014.70
2018-09-03T01:53:06.798Z,1014.74
2018-09-03T01:54:08.192Z,1014.72
2018-09-03T01:55:09.586Z,1014.66
2018-09-03T01:56:12.196Z,1014.69
2018-09-03T01:57:13.584Z,1014.71
2018-09-03T01:58:14.977Z,1014.69
2018-09-03T01:59:16.366Z,1014.66
2018-09-03T02:00:17.746Z,1014.68
2018-09-03T02:01:19.129Z,1014.66
2018-09-03T02:02:20.517Z,1014.66
2018-09-03T02:03:21.905Z,1014.66
2018-09-03T02:04:23.285Z,1014.70
2018-09-03T02:05:24.723Z,1014.70
2018-09-03T02:06:26.114Z,1014.71
2018-09-03T02:07:27.503Z,1014.70
2018-09-03T02:08:28.885Z,1014.71
2018-09-03T02:09:30.277Z,1014.73
2018-09-03T02:10:31.660Z,1014.71
2018-09-03T02:11:33.042Z,1014.73
2018-09-03T02:12:34.422Z,1014.68
2018-09-03T02:13:35.810Z,1014.70
2018-09-03T02:14:37.194Z,1014.72
2018-09-03T02:15:38.581Z,1014.72
2018-09-03T02:16:39.980Z,1014.75
2018-09-03T02:17:41.385Z,1014.72
2018-09-03T02:18:42.770Z,1014.76
2018-09-03T02:19:44.154Z,1014.80
2018-09-03T02:20:45.546Z,1014.74
2018-09-03T02:21:46.924Z,1014.78
2018-09-03T02:22:48.316Z,1014.77
2018-09-03T02:23:49.704Z,1014.73
2018-09-03T02:24:51.086Z,1014.77
2018-09-03T02:25:52.482Z,1014.79
2018-09-03T02:26:53.864Z,1014.76
2018-09-03T02:27:55.250Z,1014.81
2018-09-03T02:28:56.638Z,1014.79
2018-09-03T02:29:58.054Z,1014.77
2018-09-03T02:30:59.445Z,1014.79
2018-09-03T02:32:00.824Z,1014.76
2018-09-03T02:33:02.212Z,1014.74
2018-09-03T02:34:03.632Z,1014.79
2018-09-03T02:35:05.015Z,1014.76
2018-09-03T02:36:06.399Z,1014.77
2018-09-03T02:37:07.796Z,1014.74
2018-09-03T02:38:09.168Z,1014.77
2018-09-03T02:39:10.564Z,1014.72
2018-09-03T02:40:11.944Z,1014.75
2018-09-03T02:41:13.336Z,1014.79
2018-09-03T02:42:14.753Z,1014.79
2018-09-03T02:43:16.164Z,1014.77
2018-09-03T02:44:17.537Z,1014.75
2018-09-03T02:45:18.924Z,1014.70
2018-09-03T02:46:20.316Z,1014.68
2018-09-03T02:47:21.712Z,1014.73
2018-09-03T02:48:23.098Z,1014.72
2018-09-03T02:49:24.485Z,1014.66
2018-09-03T02:50:25.895Z,1014.70
2018-09-03T02:51:27.276Z,1014.65
2018-09-03T02:52:28.666Z,1014.69
2018-09-03T02:53:30.062Z,1014.69
2018-09-03T02:54:31.456Z,1014.68
2018-09-03T02:55:32.841Z,1014.74
2018-09-03T02:56:34.232Z,1014.69
2018-09-03T02:57:35.630Z,1014.74
2018-09-03T02:58:37.015Z,1014.73
2018-09-03T02:59:38.396Z,1014.69
2018-09-03T03:00:39.789Z,1014.66
2018-09-03T03:01:41.168Z,1014.64
2018-09-03T03:02:42.560Z,1014.71
2018-09-03T03:03:43.949Z,1014.72
2018-09-03T03:04:45.343Z,1014.69
2018-09-03T03:05:46.730Z,1014.65
2018-09-03T03:06:48.107Z,1014.58
2018-09-03T03:07:49.485Z,1014.61
2018-09-03T03:08:50.882Z,1014.66
2018-09-03T03:09:52.259Z,1014.62
2018-09-03T03:10:53.652Z,1014.60
2018-09-03T03:11:55.109Z,1014.60
2018-09-03T03:12:56.393Z,1014.60
2018-09-03T03:13:57.781Z,1014.52
2018-09-03T03:14:59.161Z,1014.55
2018-09-03T03:16:00.544Z,1014.54
2018-09-03T03:17:01.951Z,1014.60
2018-09-03T03:18:03.344Z,1014.57
2018-09-03T03:19:04.732Z,1014.57
2018-09-03T03:20:06.126Z,1014.57
2018-09-03T03:21:07.501Z,1014.51
2018-09-03T03:22:08.890Z,1014.56
2018-09-03T03:23:10.273Z,1014.55
2018-09-03T03:24:11.663Z,1014.50
2018-09-03T03:25:13.073Z,1014.49
2018-09-03T03:26:14.466Z,1014.51
2018-09-03T03:27:15.855Z,1014.50
2018-09-03T03:28:17.241Z,1014.49
2018-09-03T03:29:18.633Z,1014.50
2018-09-03T03:30:20.015Z,1014.53
2018-09-03T03:31:21.397Z,1014.52
2018-09-03T03:32:22.785Z,1014.51
2018-09-03T03:33:24.173Z,1014.51
2018-09-03T03:34:25.563Z,1014.53
2018-09-03T03:35:26.945Z,1014.49
2018-09-03T03:36:28.331Z,1014.49
2018-09-03T03:37:29.719Z,1014.46
2018-09-03T03:38:31.112Z,1014.44
2018-09-03T03:39:32.508Z,1014.40
2018-09-03T03:40:33.891Z,1014.42
2018-09-03T03:41:35.280Z,1014.41
2018-09-03T03:42:36.668Z,1014.40
2018-09-03T03:43:38.054Z,1014.42
2018-09-03T03:44:39.437Z,1014.37
2018-09-03T03:45:40.816Z,1014.36
2018-09-03T03:46:42.208Z,1014.35
2018-09-03T03:47:43.599Z,1014.36
2018-09-03T03:48:45.032Z,1014.30
2018-09-03T03:49:46.328Z,1014.29
2018-09-03T03:50:47.713Z,1014.31
2018-09-03T03:51:49.101Z,1014.28
2018-09-03T03:52:50.495Z,1014.30
2018-09-03T03:53:51.873Z,1014.30
2018-09-03T03:54:53.311Z,1014.36
2018-09-03T03:55:54.643Z,1014.36
2018-09-03T03:56:56.027Z,1014.30
2018-09-03T03:57:57.417Z,1014.22
2018-09-03T03:58:58.820Z,1014.25
2018-09-03T04:00:00.200Z,1014.23
2018-09-03T04:01:01.581Z,1014.22
2018-09-03T04:02:02.969Z,1014.18
2018-09-03T04:03:04.357Z,1014.19
2018-09-03T04:04:05.740Z,1014.24
2018-09-03T04:05:07.131Z,1014.12
2018-09-03T04:06:08.517Z,1014.16
2018-09-03T04:07:09.900Z,1014.15
2018-09-03T04:08:11.317Z,1014.24
2018-09-03T04:09:12.703Z,1014.24
2018-09-03T04:10:14.093Z,1014.19
2018-09-03T04:11:15.492Z,1014.27
2018-09-03T04:12:16.888Z,1014.22
2018-09-03T04:13:18.271Z,1014.20
2018-09-03T04:14:19.646Z,1014.24
2018-09-03T04:15:21.038Z,1014.22
2018-09-03T04:16:22.452Z,1014.26
2018-09-03T04:17:23.842Z,1014.28
2018-09-03T04:18:25.608Z,1014.23
2018-09-03T04:19:27.007Z,1014.26
2018-09-03T04:20:28.402Z,1014.30
2018-09-03T04:21:29.775Z,1014.29
2018-09-03T04:22:31.161Z,1014.31
2018-09-03T04:23:32.558Z,1014.27
2018-09-03T04:24:33.937Z,1014.32
2018-09-03T04:25:35.319Z,1014.30
2018-09-03T04:26:36.705Z,1014.29
2018-09-03T04:27:38.087Z,1014.23
2018-09-03T04:28:39.474Z,1014.29
2018-09-03T04:29:40.863Z,1014.24
2018-09-03T04:30:42.253Z,1014.24
2018-09-03T04:31:43.646Z,1014.24
2018-09-03T04:32:45.042Z,1014.19
2018-09-03T04:33:46.420Z,1014.25
2018-09-03T04:34:47.824Z,1014.24
2018-09-03T04:35:49.206Z,1014.30
2018-09-03T04:36:50.597Z,1014.29
2018-09-03T04:37:52.010Z,1014.33
2018-09-03T04:38:53.460Z,1014.31
2018-09-03T04:39:54.794Z,1014.31
2018-09-03T04:40:56.821Z,1014.32
2018-09-03T04:41:59.013Z,1014.35
2018-09-03T04:43:00.394Z,1014.30
2018-09-03T04:44:01.789Z,1014.32
2018-09-03T04:45:03.168Z,1014.35
2018-09-03T04:46:04.562Z,1014.33
2018-09-03T04:47:05.955Z,1014.34
2018-09-03T04:48:07.374Z,1014.37
2018-09-03T04:49:08.727Z,1014.39
2018-09-03T04:50:10.123Z,1014.36
2018-09-03T04:51:11.517Z,1014.37
2018-09-03T04:52:12.905Z,1014.35
2018-09-03T04:53:14.301Z,1014.33
2018-09-03T04:54:15.688Z,1014.34
2018-09-03T04:55:17.145Z,1014.39
2018-09-03T04:56:18.421Z,1014.41
2018-09-03T04:57:19.814Z,1014.42
2018-09-03T04:58:21.206Z,1014.38
2018-09-03T04:59:22.588Z,1014.37
2018-09-03T05:00:24.052Z,1014.41
2018-09-03T05:01:25.460Z,1014.44
2018-09-03T05:02:26.840Z,1014.39
2018-09-03T05:03:28.234Z,1014.38
2018-09-03T05:04:29.650Z,1014.43
2018-09-03T05:05:31.105Z,1014.43
2018-09-03T05:06:32.431Z,1014.43
2018-09-03T05:07:33.831Z,1014.45
2018-09-03T05:08:35.218Z,1014.44
2018-09-03T05:09:36.613Z,1014.45
2018-09-03T05:10:37.999Z,1014.46
2018-09-03T05:11:39.402Z,1014.48
2018-09-03T05:12:40.779Z,1014.43
2018-09-03T05:13:42.165Z,1014.43
2018-09-03T05:14:43.555Z,1014.44
2018-09-03T05:15:44.945Z,1014.44
2018-09-03T05:16:46.333Z,1014.47
2018-09-03T05:17:47.730Z,1014.45
2018-09-03T05:18:49.112Z,1014.45
2018-09-03T05:19:50.584Z,1014.48
2018-09-03T05:20:51.963Z,1014.49
2018-09-03T05:21:53.364Z,1014.53
2018-09-03T05:22:54.741Z,1014.55
2018-09-03T05:23:56.132Z,1014.56
2018-09-03T05:24:58.388Z,1014.49
2018-09-03T05:25:59.786Z,1014.51
2018-09-03T05:27:01.175Z,1014.51
2018-09-03T05:28:02.568Z,1014.50
2018-09-03T05:29:03.963Z,1014.46
2018-09-03T05:30:05.346Z,1014.45
2018-09-03T05:31:06.764Z,1014.48
2018-09-03T05:32:08.092Z,1014.46
2018-09-03T05:33:09.479Z,1014.45
2018-09-03T05:34:10.866Z,1014.48
2018-09-03T05:35:12.256Z,1014.47
2018-09-03T05:36:13.652Z,1014.44
2018-09-03T05:37:15.035Z,1014.47
2018-09-03T05:38:16.461Z,1014.42
2018-09-03T05:39:17.821Z,1014.43
2018-09-03T05:40:19.213Z,1014.47
2018-09-03T05:41:20.597Z,1014.47
2018-09-03T05:42:22.013Z,1014.44
2018-09-03T05:43:23.615Z,1014.44
2018-09-03T05:44:24.842Z,1014.42
2018-09-03T05:45:26.223Z,1014.41
2018-09-03T05:46:27.603Z,1014.41
2018-09-03T05:47:29.000Z,1014.39
2018-09-03T05:48:30.388Z,1014.45
2018-09-03T05:49:31.790Z,1014.40
2018-09-03T05:50:33.961Z,1014.38
2018-09-03T05:51:35.288Z,1014.44
2018-09-03T05:52:36.686Z,1014.42
2018-09-03T05:53:38.071Z,1014.44
2018-09-03T05:54:39.462Z,1014.41
2018-09-03T05:55:40.848Z,1014.44
2018-09-03T05:56:42.242Z,1014.44
2018-09-03T05:57:44.486Z,1014.40
2018-09-03T05:58:45.873Z,1014.45
2018-09-03T05:59:47.268Z,1014.40
2018-09-03T06:00:48.661Z,1014.43
2018-09-03T06:01:50.044Z,1014.45
2018-09-03T06:02:51.444Z,1014.45
2018-09-03T06:03:52.835Z,1014.44
2018-09-03T06:04:54.306Z,1014.47
2018-09-03T06:05:55.566Z,1014.46
2018-09-03T06:06:56.956Z,1014.53
2018-09-03T06:07:58.347Z,1014.53
2018-09-03T06:08:59.733Z,1014.52
2018-09-03T06:10:01.135Z,1014.54
2018-09-03T06:11:02.568Z,1014.54
2018-09-03T06:12:03.944Z,1014.54
2018-09-03T06:13:05.349Z,1014.52
2018-09-03T06:14:06.741Z,1014.52
2018-09-03T06:15:08.136Z,1014.55
2018-09-03T06:16:09.529Z,1014.56
2018-09-03T06:17:10.943Z,1014.58
2018-09-03T06:18:12.339Z,1014.57
2018-09-03T06:19:13.733Z,1014.56
2018-09-03T06:20:15.125Z,1014.61
2018-09-03T06:21:16.509Z,1014.57
2018-09-03T06:22:17.907Z,1014.54
2018-09-03T06:23:19.297Z,1014.55
2018-09-03T06:24:20.693Z,1014.55
2018-09-03T06:25:22.110Z,1014.56
2018-09-03T06:26:23.497Z,1014.58
2018-09-03T06:27:24.886Z,1014.55
2018-09-03T06:28:26.301Z,1014.57
2018-09-03T06:29:28.464Z,1014.53
2018-09-03T06:30:29.870Z,1014.53
2018-09-03T06:31:31.268Z,1014.55
2018-09-03T06:32:32.694Z,1014.49
2018-09-03T06:33:34.103Z,1014.57
2018-09-03T06:34:35.486Z,1014.54
2018-09-03T06:35:36.894Z,1014.54
2018-09-03T06:36:38.277Z,1014.49
2018-09-03T06:37:39.676Z,1014.48
2018-09-03T06:38:41.081Z,1014.51
2018-09-03T06:39:42.470Z,1014.49
2018-09-03T06:40:43.865Z,1014.51
2018-09-03T06:41:45.261Z,1014.47
2018-09-03T06:42:46.653Z,1014.46
2018-09-03T06:43:48.049Z,1014.49
2018-09-03T06:44:49.431Z,1014.47
2018-09-03T06:45:50.854Z,1014.49
2018-09-03T06:46:52.215Z,1014.53
2018-09-03T06:47:53.616Z,1014.44
2018-09-03T06:48:54.996Z,1014.48
2018-09-03T06:49:56.390Z,1014.52
2018-09-03T06:50:57.785Z,1014.50
2018-09-03T06:51:59.179Z,1014.41
2018-09-03T06:53:00.572Z,1014.51
2018-09-03T06:54:01.964Z,1014.45
2018-09-03T06:55:03.369Z,1014.45
2018-09-03T06:56:04.756Z,1014.42
2018-09-03T06:57:06.147Z,1014.50
2018-09-03T06:58:07.539Z,1014.47
2018-09-03T06:59:08.932Z,1014.49
2018-09-03T07:00:10.317Z,1014.43
2018-09-03T07:01:11.712Z,1014.43
2018-09-03T07:02:13.102Z,1014.48
2018-09-03T07:03:14.493Z,1014.48
2018-09-03T07:04:15.896Z,1014.51
2018-09-03T07:05:17.290Z,1014.55
2018-09-03T07:06:18.688Z,1014.47
2018-09-03T07:07:20.085Z,1014.46
2018-09-03T07:08:21.472Z,1014.45
2018-09-03T07:09:22.870Z,1014.44
2018-09-03T07:10:24.263Z,1014.52
2018-09-03T07:11:25.670Z,1014.44
2018-09-03T07:12:27.069Z,1014.38
2018-09-03T07:13:28.461Z,1014.50
2018-09-03T07:14:29.897Z,1014.38
2018-09-03T07:15:31.297Z,1014.49
2018-09-03T07:16:32.693Z,1014.52
2018-09-03T07:17:34.108Z,1014.44
2018-09-03T07:18:35.508Z,1014.50
2018-09-03T07:19:36.907Z,1014.46
2018-09-03T07:20:38.326Z,1014.54
2018-09-03T07:21:39.709Z,1014.39
2018-09-03T07:22:41.117Z,1014.42
2018-09-03T07:23:42.534Z,1014.55
2018-09-03T07:24:43.931Z,1014.57
2018-09-03T07:25:45.335Z,1014.55
2018-09-03T07:26:46.730Z,1014.36
2018-09-03T07:27:48.120Z,1014.44
2018-09-03T07:28:49.528Z,1014.41
2018-09-03T07:29:50.872Z,1014.36
2018-09-03T07:30:52.279Z,1014.35
2018-09-03T07:31:53.690Z,1014.39
2018-09-03T07:32:55.071Z,1014.33
2018-09-03T07:33:56.470Z,1014.36
2018-09-03T07:34:57.868Z,1014.42
2018-09-03T07:35:59.267Z,1014.38
2018-09-03T07:37:00.670Z,1014.37
2018-09-03T07:38:02.063Z,1014.37
2018-09-03T07:39:04.006Z,1014.33
2018-09-03T07:40:05.407Z,1014.34
2018-09-03T07:41:06.797Z,1014.30
2018-09-03T07:42:08.221Z,1014.32
2018-09-03T07:43:09.625Z,1014.29
2018-09-03T07:44:11.078Z,1014.31
2018-09-03T07:45:12.435Z,1014.32
2018-09-03T07:46:13.899Z,1014.27
2018-09-03T07:47:15.298Z,1014.30
2018-09-03T07:48:16.700Z,1014.31
2018-09-03T07:49:18.097Z,1014.35
2018-09-03T07:50:19.504Z,1014.33
2018-09-03T07:51:20.888Z,1014.30
2018-09-03T07:52:22.290Z,1014.30
2018-09-03T07:53:23.692Z,1014.35
2018-09-03T07:54:25.086Z,1014.34
2018-09-03T07:55:26.481Z,1014.31
2018-09-03T07:56:27.942Z,1014.32
2018-09-03T07:57:29.328Z,1014.34
2018-09-03T07:58:30.726Z,1014.30
2018-09-03T07:59:32.128Z,1014.27
2018-09-03T08:00:33.531Z,1014.26
2018-09-03T08:01:34.929Z,1014.20
2018-09-03T08:02:36.320Z,1014.16
2018-09-03T08:03:37.720Z,1014.17
2018-09-03T08:04:39.108Z,1014.15
2018-09-03T08:05:40.506Z,1014.18
2018-09-03T08:06:41.907Z,1014.17
2018-09-03T08:07:43.301Z,1014.12
2018-09-03T08:08:44.692Z,1014.22
2018-09-03T08:09:46.191Z,1014.15
2018-09-03T08:10:47.599Z,1014.11
2018-09-03T08:11:49.003Z,1014.11
2018-09-03T08:12:50.424Z,1014.15
2018-09-03T08:13:51.796Z,1014.11
2018-09-03T08:14:53.193Z,1014.13
2018-09-03T08:15:54.649Z,1014.20
2018-09-03T08:16:56.638Z,1014.14
2018-09-03T08:17:58.044Z,1014.16
2018-09-03T08:18:59.445Z,1014.13
2018-09-03T08:20:00.881Z,1014.09
2018-09-03T08:21:02.189Z,1014.13
2018-09-03T08:22:03.590Z,1014.15
2018-09-03T08:23:04.995Z,1014.14
2018-09-03T08:24:06.398Z,1014.12
2018-09-03T08:25:07.790Z,1014.18
2018-09-03T08:26:09.196Z,1014.15
2018-09-03T08:27:10.576Z,1014.16
2018-09-03T08:28:11.989Z,1014.12
2018-09-03T08:29:13.380Z,1014.12
2018-09-03T08:30:14.784Z,1014.11
2018-09-03T08:31:16.172Z,1014.05
2018-09-03T08:32:17.567Z,1014.11
2018-09-03T08:33:18.977Z,1014.06
2018-09-03T08:34:20.381Z,1014.04
2018-09-03T08:35:21.781Z,1014.08
2018-09-03T08:36:23.194Z,1014.03
2018-09-03T08:37:24.590Z,1013.98
2018-09-03T08:38:25.979Z,1014.01
2018-09-03T08:39:27.378Z,1013.97
2018-09-03T08:40:28.777Z,1013.98
2018-09-03T08:41:30.168Z,1013.97
2018-09-03T08:42:31.593Z,1013.99
2018-09-03T08:43:33.014Z,1013.99
2018-09-03T08:44:34.435Z,1013.94
2018-09-03T08:45:35.862Z,1013.97
2018-09-03T08:46:37.267Z,1013.92
2018-09-03T08:47:38.656Z,1013.93
2018-09-03T08:48:40.095Z,1013.93
2018-09-03T08:49:41.476Z,1013.92
2018-09-03T08:50:42.879Z,1013.93
2018-09-03T08:51:44.276Z,1013.93
2018-09-03T08:52:45.683Z,1013.94
2018-09-03T08:53:47.087Z,1013.91
2018-09-03T08:54:48.438Z,1013.91
2018-09-03T08:55:49.833Z,1013.87
2018-09-03T08:56:51.279Z,1013.89
2018-09-03T08:57:52.639Z,1013.89
2018-09-03T08:58:54.010Z,1013.87
2018-09-03T08:59:55.411Z,1013.81
2018-09-03T09:00:56.807Z,1013.82
2018-09-03T09:01:58.205Z,1013.85
2018-09-03T09:02:59.658Z,1013.88
2018-09-03T09:04:01.067Z,1013.87
2018-09-03T09:05:02.447Z,1013.83
2018-09-03T09:06:03.844Z,1013.82
2018-09-03T09:07:05.240Z,1013.85
2018-09-03T09:08:07.194Z,1013.88
2018-09-03T09:09:08.579Z,1013.85
2018-09-03T09:10:09.980Z,1013.84
2018-09-03T09:11:11.387Z,1013.83
2018-09-03T09:12:12.788Z,1013.84
2018-09-03T09:13:14.181Z,1013.86
2018-09-03T09:14:15.580Z,1013.84
2018-09-03T09:15:16.970Z,1013.87
2018-09-03T09:16:18.354Z,1013.84
2018-09-03T09:17:19.755Z,1013.82
2018-09-03T09:18:21.169Z,1013.80
2018-09-03T09:19:22.564Z,1013.81
2018-09-03T09:20:23.960Z,1013.81
2018-09-03T09:21:25.353Z,1013.81
2018-09-03T09:22:26.756Z,1013.84
2018-09-03T09:23:28.147Z,1013.83
2018-09-03T09:24:29.639Z,1013.85
2018-09-03T09:25:30.943Z,1013.86
2018-09-03T09:26:32.338Z,1013.83
2018-09-03T09:27:33.727Z,1013.80
2018-09-03T09:28:35.121Z,1013.83
2018-09-03T09:29:36.534Z,1013.82
2018-09-03T09:30:37.921Z,1013.83
2018-09-03T09:31:39.317Z,1013.88
2018-09-03T09:32:40.716Z,1013.98
2018-09-03T09:33:42.116Z,1013.93
2018-09-03T09:34:43.528Z,1013.96
2018-09-03T09:35:44.982Z,1013.91
2018-09-03T09:36:46.376Z,1013.91
2018-09-03T09:37:47.725Z,1013.88
2018-09-03T09:38:49.118Z,1013.88
2018-09-03T09:39:50.524Z,1013.86
2018-09-03T09:40:51.928Z,1013.82
2018-09-03T09:41:53.349Z,1013.85
2018-09-03T09:42:54.835Z,1013.91
2018-09-03T09:43:56.186Z,1013.91
2018-09-03T09:44:57.591Z,1013.92
2018-09-03T09:45:59.030Z,1013.89
2018-09-03T09:47:00.419Z,1013.85
2018-09-03T09:48:01.813Z,1013.83
2018-09-03T09:49:03.228Z,1013.81
2018-09-03T09:50:04.640Z,1013.79
2018-09-03T09:51:06.059Z,1013.81
2018-09-03T09:52:07.494Z,1013.77
2018-09-03T09:53:08.907Z,1013.69
2018-09-03T09:54:10.307Z,1013.72
2018-09-03T09:55:11.709Z,1013.69
2018-09-03T09:56:13.109Z,1013.76
2018-09-03T09:57:14.531Z,1013.74
2018-09-03T09:58:15.934Z,1013.66
2018-09-03T09:59:17.336Z,1013.73
2018-09-03T10:00:18.739Z,1013.75
2018-09-03T10:01:20.152Z,1013.70
2018-09-03T10:02:21.553Z,1013.67
2018-09-03T10:03:22.995Z,1013.73
2018-09-03T10:04:24.407Z,1013.66
2018-09-03T10:05:25.806Z,1013.65
2018-09-03T10:06:27.209Z,1013.55
2018-09-03T10:07:28.610Z,1013.57
2018-09-03T10:08:30.035Z,1013.58
2018-09-03T10:09:31.439Z,1013.52
2018-09-03T10:10:32.853Z,1013.48
2018-09-03T10:11:34.265Z,1013.51
2018-09-03T10:12:35.683Z,1013.44
2018-09-03T10:13:37.092Z,1013.46
2018-09-03T10:14:38.487Z,1013.41
2018-09-03T10:15:39.894Z,1013.42
2018-09-03T10:16:41.293Z,1013.42
2018-09-03T10:17:42.690Z,1013.41
2018-09-03T10:18:44.093Z,1013.41
2018-09-03T10:19:45.508Z,1013.37
2018-09-03T10:20:47.024Z,1013.37
2018-09-03T10:21:48.366Z,1013.42
2018-09-03T10:22:50.383Z,1013.36
2018-09-03T10:23:51.783Z,1013.32
2018-09-03T10:24:53.195Z,1013.36
2018-09-03T10:25:54.602Z,1013.35
2018-09-03T10:26:56.027Z,1013.32
2018-09-03T10:27:57.445Z,1013.33
2018-09-03T10:28:58.853Z,1013.27
2018-09-03T10:30:00.245Z,1013.32
2018-09-03T10:31:01.678Z,1013.38
2018-09-03T10:32:03.080Z,1013.36
2018-09-03T10:33:04.484Z,1013.28
2018-09-03T10:34:05.885Z,1013.24
2018-09-03T10:35:07.312Z,1013.28
2018-09-03T10:36:08.698Z,1013.20
2018-09-03T10:37:10.108Z,1013.25
2018-09-03T10:38:11.596Z,1013.22
2018-09-03T10:39:12.880Z,1013.28
2018-09-03T10:40:14.282Z,1013.25
2018-09-03T10:41:15.676Z,1013.24
2018-09-03T10:42:17.087Z,1013.25
2018-09-03T10:43:18.490Z,1013.17
2018-09-03T10:44:19.887Z,1013.18
2018-09-03T10:45:21.363Z,1013.14
2018-09-03T10:46:22.752Z,1013.16
2018-09-03T10:47:24.197Z,1013.17
2018-09-03T10:48:25.510Z,1013.23
2018-09-03T10:49:26.909Z,1013.18
2018-09-03T10:50:28.321Z,1013.21
2018-09-03T10:51:29.721Z,1013.12
2018-09-03T10:52:31.137Z,1013.18
2018-09-03T10:53:32.541Z,1013.13
2018-09-03T10:54:33.937Z,1013.11
2018-09-03T10:55:35.340Z,1013.14
2018-09-03T10:56:36.767Z,1013.15
2018-09-03T10:57:38.156Z,1013.09
2018-09-03T10:58:39.573Z,1013.14
2018-09-03T10:59:40.972Z,1013.05
2018-09-03T11:00:42.364Z,1013.09
2018-09-03T11:01:43.786Z,1013.05
2018-09-03T11:02:45.191Z,1013.07
2018-09-03T11:03:46.588Z,1013.02
2018-09-03T11:04:47.990Z,1013.05
2018-09-03T11:05:49.392Z,1012.95
2018-09-03T11:06:50.805Z,1012.96
2018-09-03T11:07:52.209Z,1012.99
2018-09-03T11:08:53.666Z,1012.93
2018-09-03T11:09:55.062Z,1012.90
2018-09-03T11:10:56.462Z,1012.99
2018-09-03T11:11:57.865Z,1012.91
2018-09-03T11:12:59.272Z,1012.88
2018-09-03T11:14:00.672Z,1012.82
2018-09-03T11:15:02.071Z,1012.82
2018-09-03T11:16:04.356Z,1012.74
2018-09-03T11:17:05.755Z,1012.82
2018-09-03T11:18:07.153Z,1012.79
2018-09-03T11:19:08.553Z,1012.78
2018-09-03T11:20:09.943Z,1012.77
2018-09-03T11:21:11.431Z,1012.73
2018-09-03T11:22:12.760Z,1012.75
2018-09-03T11:23:14.164Z,1012.72
2018-09-03T11:24:15.551Z,1012.81
2018-09-03T11:25:16.969Z,1012.79
2018-09-03T11:26:18.362Z,1012.76
2018-09-03T11:27:19.761Z,1012.72
2018-09-03T11:28:21.159Z,1012.69
2018-09-03T11:29:22.559Z,1012.68
2018-09-03T11:30:24.010Z,1012.68
2018-09-03T11:31:25.362Z,1012.67
2018-09-03T11:32:26.754Z,1012.58
2018-09-03T11:33:28.155Z,1012.60
2018-09-03T11:34:29.575Z,1012.63
2018-09-03T11:35:30.986Z,1012.56
2018-09-03T11:36:32.364Z,1012.54
2018-09-03T11:37:33.760Z,1012.56
2018-09-03T11:38:35.163Z,1012.51
2018-09-03T11:39:36.558Z,1012.47
2018-09-03T11:40:37.960Z,1012.53
2018-09-03T11:41:39.361Z,1012.54
2018-09-03T11:42:40.767Z,1012.53
2018-09-03T11:43:42.173Z,1012.48
2018-09-03T11:44:43.565Z,1012.50
2018-09-03T11:45:44.973Z,1012.49
2018-09-03T11:46:46.373Z,1012.43
2018-09-03T11:47:47.772Z,1012.41
2018-09-03T11:48:49.172Z,1012.38
2018-09-03T11:49:50.578Z,1012.46
2018-09-03T11:50:51.974Z,1012.41
2018-09-03T11:51:53.384Z,1012.45
2018-09-03T11:52:54.782Z,1012.45
2018-09-03T11:53:56.182Z,1012.43
2018-09-03T11:54:57.594Z,1012.41
2018-09-03T11:55:58.998Z,1012.36
2018-09-03T11:57:00.390Z,1012.40
2018-09-03T11:58:01.789Z,1012.41
2018-09-03T11:59:03.189Z,1012.36
2018-09-03T12:00:04.590Z,1012.34
2018-09-03T12:01:05.994Z,1012.41
2018-09-03T12:02:07.418Z,1012.41
2018-09-03T12:03:08.747Z,1012.33
2018-09-03T12:04:10.147Z,1012.36
2018-09-03T12:05:11.550Z,1012.38
2018-09-03T12:06:12.941Z,1012.34
2018-09-03T12:07:14.359Z,1012.42
2018-09-03T12:08:15.748Z,1012.31
2018-09-03T12:09:17.149Z,1012.31
2018-09-03T12:10:18.537Z,1012.30
2018-09-03T12:11:19.961Z,1012.29
2018-09-03T12:12:21.373Z,1012.24
2018-09-03T12:13:22.765Z,1012.24
2018-09-03T12:14:24.163Z,1012.23
2018-09-03T12:15:25.559Z,1012.18
2018-09-03T12:16:26.951Z,1012.30
2018-09-03T12:17:28.353Z,1012.26
2018-09-03T12:18:29.768Z,1012.26
2018-09-03T12:19:31.163Z,1012.31
2018-09-03T12:20:32.571Z,1012.27
2018-09-03T12:21:33.975Z,1012.28
2018-09-03T12:22:35.376Z,1012.22